Time;durP1;ratioP1;P1;durP2;ratioP2;P2;SDS_P1;SDS_P2;PMS_P1;PMS_P2;Temp;Humidity;BMP_temperature;BMP_pressure;BME280_temperature;BME280_humidity;BME280_pressure;Samples;Min_cycle;Max_cycle;Signal;HPM_P1;HPM_P2
2022/08/22 00:02:27;;;;;;;2.22;0.90;;;19.00;60.00;21.10;93790.00;;;;10521280;27;45156;-58
2022/08/22 00:08:00;;;;;;;2.15;1.10;;;19.00;60.00;21.10;93809.00;;;;10521345;27;45226;-58
2022/08/22 00:13:28;;;;;;;1.27;0.80;;;19.00;60.00;21.10;93792.00;;;;10534226;27;45208;-58
2022/08/22 00:18:54;;;;;;;2.00;0.98;;;19.00;60.00;21.10;93797.00;;;;10520755;27;45234;-59
2022/08/22 00:24:25;;;;;;;2.47;0.93;;;19.00;60.00;21.10;93783.00;;;;10520222;28;45147;-60
2022/08/22 00:29:53;;;;;;;2.55;1.00;;;19.00;60.00;21.10;93796.00;;;;10520942;27;45132;-57
2022/08/22 00:35:22;;;;;;;1.90;0.73;;;19.00;60.00;21.10;93804.00;;;;10521141;28;45132;-58
2022/08/22 00:40:57;;;;;;;2.15;0.80;;;19.00;60.00;21.10;93803.00;;;;10518287;27;45167;-60
2022/08/22 00:46:54;;;;;;;2.40;0.98;;;19.00;60.00;21.10;93805.00;;;;10506429;28;45113;-58
2022/08/22 00:52:40;;;;;;;1.92;0.95;;;19.00;60.00;21.10;93800.00;;;;10515736;27;45253;-59
2022/08/22 00:58:47;;;;;;;2.50;1.02;;;19.00;60.00;21.10;93797.00;;;;10519067;28;45271;-57
2022/08/22 01:04:47;;;;;;;1.43;0.77;;;19.00;59.90;21.10;93789.00;;;;10508822;27;45233;-57
2022/08/22 01:10:35;;;;;;;2.35;1.00;;;19.00;59.90;21.10;93797.00;;;;10516802;28;45274;-59
2022/08/22 01:16:04;;;;;;;;;;;19.00;60.00;21.10;93789.00;;;;10521621;28;45891;-58
2022/08/22 01:22:16;;;;;;;2.00;0.70;;;18.90;59.90;21.10;93799.00;;;;10521869;27;45667;-60
2022/08/22 01:28:19;;;;;;;1.42;0.80;;;19.00;59.90;21.10;93786.00;;;;10513369;28;45227;-58
2022/08/22 01:34:32;;;;;;;1.80;0.75;;;18.90;59.90;21.10;93782.00;;;;10521252;28;45400;-59
2022/08/22 01:40:28;;;;;;;2.17;0.90;;;18.90;59.90;21.00;93781.00;;;;10519111;27;45236;-57
2022/08/22 01:46:31;;;;;;;1.63;0.60;;;18.90;59.90;21.00;93775.00;;;;10503140;27;45737;-59
2022/08/22 01:51:59;;;;;;;1.73;0.77;;;18.90;59.90;21.00;93774.00;;;;10521217;27;45252;-59
2022/08/22 01:57:22;;;;;;;1.08;0.55;;;18.90;59.90;21.00;93770.00;;;;10520850;28;45705;-58
2022/08/22 02:02:59;;;;;;;0.95;0.63;;;18.90;59.90;21.00;93755.00;;;;10520979;28;45160;-59
2022/08/22 02:08:32;;;;;;;2.28;0.90;;;18.90;59.90;21.00;93771.00;;;;10519350;28;45883;-58
2022/08/22 02:14:03;;;;;;;1.70;0.55;;;18.90;59.80;21.00;93772.00;;;;10520147;28;45723;-58
2022/08/22 02:19:36;;;;;;;1.05;0.65;;;18.90;59.80;21.00;93758.00;;;;10519141;27;45153;-59
2022/08/22 02:25:09;;;;;;;0.88;0.50;;;18.90;59.80;21.00;93753.00;;;;10519221;28;45166;-59
2022/08/22 02:30:47;;;;;;;1.05;0.50;;;18.90;59.80;21.00;93751.00;;;;10518086;28;45220;-58
2022/08/22 02:36:19;;;;;;;1.50;0.70;;;18.90;59.80;21.00;93740.00;;;;10518639;28;45174;-60
2022/08/22 02:41:54;;;;;;;0.85;0.60;;;18.90;59.80;21.00;93754.00;;;;10517652;28;45186;-59
2022/08/22 02:47:30;;;;;;;1.15;0.52;;;18.90;59.70;21.00;93747.00;;;;10517782;28;45227;-59
2022/08/22 02:52:57;;;;;;;1.15;0.50;;;18.90;59.70;21.00;93746.00;;;;10518092;28;45275;-58
2022/08/22 02:58:35;;;;;;;1.33;0.60;;;18.90;59.70;21.00;93730.00;;;;10517660;28;45205;-58
2022/08/22 03:04:47;;;;;;;1.45;0.63;;;18.90;59.70;21.00;93739.00;;;;10517511;28;45220;-58
2022/08/22 03:10:18;;;;;;;1.38;0.70;;;18.90;59.70;21.00;93733.00;;;;10517046;28;45254;-58
2022/08/22 03:15:49;;;;;;;1.63;0.70;;;18.90;59.70;21.00;93735.00;;;;10517686;28;45254;-58
2022/08/22 03:21:24;;;;;;;1.63;0.60;;;18.90;59.70;21.00;93734.00;;;;10514177;27;45212;-60
2022/08/22 03:26:52;;;;;;;1.90;0.80;;;18.90;59.70;21.00;93730.00;;;;10511364;28;45956;-59
2022/08/22 03:32:18;;;;;;;1.35;0.60;;;18.90;59.70;21.00;93730.00;;;;10510897;28;45113;-58
2022/08/22 03:37:42;;;;;;;1.70;0.60;;;18.90;59.70;21.00;93735.00;;;;10510082;28;45764;-59
2022/08/22 03:43:48;;;;;;;1.08;0.57;;;18.90;59.70;21.00;93716.00;;;;10510837;28;45125;-59
2022/08/22 03:50:04;;;;;;;0.88;0.60;;;18.90;59.70;21.00;93724.00;;;;10509949;28;45736;-59
2022/08/22 03:55:40;;;;;;;1.23;0.50;;;18.90;59.70;21.00;93721.00;;;;10509556;28;45129;-59
2022/08/22 04:01:33;;;;;;;1.17;0.50;;;18.90;59.60;21.00;93728.00;;;;10510547;27;45362;-60
2022/08/22 04:07:45;;;;;;;1.15;0.60;;;18.90;59.60;20.90;93725.00;;;;10510209;28;45709;-58
2022/08/22 04:13:43;;;;;;;0.63;0.40;;;18.90;59.70;21.00;93746.00;;;;10492192;27;45403;-58
2022/08/22 04:19:49;;;;;;;0.75;0.45;;;18.90;59.60;21.00;93731.00;;;;10513532;27;46168;-59
2022/08/22 04:25:17;;;;;;;1.25;0.50;;;18.90;59.60;21.00;93753.00;;;;10512277;28;45424;-58
2022/08/22 04:30:44;;;;;;;0.77;0.40;;;18.90;59.60;20.90;93746.00;;;;10518170;27;45277;-58
2022/08/22 04:36:14;;;;;;;1.20;0.68;;;18.90;59.60;20.90;93748.00;;;;10517839;28;45453;-58
2022/08/22 04:41:47;;;;;;;0.93;0.45;;;18.90;59.60;20.90;93762.00;;;;10516949;27;45324;-58
2022/08/22 04:47:19;;;;;;;1.02;0.40;;;18.80;59.50;20.90;93767.00;;;;10517603;28;45703;-60
2022/08/22 04:52:56;;;;;;;1.02;0.40;;;18.80;59.50;20.90;93757.00;;;;10516911;28;45745;-58
2022/08/22 04:58:41;;;;;;;0.80;0.40;;;18.80;59.60;20.90;93755.00;;;;10516427;28;45212;-58
2022/08/22 05:04:07;;;;;;;0.65;0.40;;;18.90;59.60;20.90;93763.00;;;;10517928;28;45927;-58
2022/08/22 05:09:34;;;;;;;0.50;0.50;;;18.80;59.50;20.90;93766.00;;;;10516563;27;45400;-58
2022/08/22 05:15:01;;;;;;;0.63;0.40;;;18.80;59.50;20.90;93770.00;;;;10517968;28;45411;-58
2022/08/22 05:20:27;;;;;;;0.50;0.37;;;18.80;59.50;20.90;93766.00;;;;10509970;27;45118;-59
2022/08/22 05:25:52;;;;;;;0.60;0.40;;;18.80;59.50;20.90;93763.00;;;;10516915;28;45141;-57
2022/08/22 05:31:18;;;;;;;0.70;0.40;;;18.80;59.50;20.90;93757.00;;;;10504222;27;45392;-60
2022/08/22 05:36:43;;;;;;;0.55;0.40;;;18.90;59.60;20.90;93771.00;;;;10516867;28;45793;-59
2022/08/22 05:42:05;;;;;;;0.57;0.40;;;18.90;59.50;20.90;93766.00;;;;10516149;27;45164;-61
2022/08/22 05:47:35;;;;;;;0.55;0.35;;;18.90;59.50;20.90;93768.00;;;;10515813;28;45831;-57
2022/08/22 05:53:05;;;;;;;0.43;0.40;;;18.90;59.50;20.90;93772.00;;;;10515826;28;45230;-59
2022/08/22 05:58:47;;;;;;;0.30;0.30;;;18.80;59.40;20.90;93790.00;;;;10516265;27;45145;-58
2022/08/22 06:04:26;;;;;;;0.35;0.30;;;18.90;59.40;20.90;93793.00;;;;10503162;28;45135;-59
2022/08/22 06:10:20;;;;;;;0.63;0.40;;;18.90;59.40;20.90;93803.00;;;;10513865;28;45152;-59
2022/08/22 06:15:50;;;;;;;0.52;0.30;;;18.90;59.40;20.90;93796.00;;;;10503042;28;45311;-58
2022/08/22 06:21:18;;;;;;;0.68;0.50;;;18.90;59.40;20.90;93795.00;;;;10509921;27;45944;-58
2022/08/22 06:26:43;;;;;;;0.60;0.30;;;18.90;59.40;20.90;93804.00;;;;10512905;28;45798;-57
2022/08/22 06:32:12;;;;;;;0.43;0.40;;;18.90;59.40;20.90;93816.00;;;;10513996;27;45174;-60
2022/08/22 06:37:41;;;;;;;0.35;0.30;;;18.90;59.40;20.90;93820.00;;;;10516167;27;45331;-57
2022/08/22 06:43:02;;;;;;;0.60;0.40;;;18.90;59.40;21.00;93828.00;;;;10514146;28;45234;-60
2022/08/22 06:48:24;;;;;;;0.45;0.30;;;18.80;59.30;20.90;93826.00;;;;10515301;28;45129;-58
2022/08/22 06:53:49;;;;;;;0.40;0.40;;;18.90;59.40;21.00;93822.00;;;;10513853;28;45864;-59
2022/08/22 06:59:15;;;;;;;1.95;0.95;;;18.90;59.30;20.80;93833.00;;;;10513724;28;45308;-58
2022/08/22 07:04:36;;;;;;;2.23;1.00;;;18.80;55.40;20.80;93825.00;;;;10516630;28;45156;-57
2022/08/22 07:09:59;;;;;;;2.20;0.90;;;18.70;57.00;20.90;93828.00;;;;10516083;28;45164;-58
2022/08/22 07:15:29;;;;;;;1.35;0.68;;;18.80;57.60;20.90;93825.00;;;;10515977;28;45248;-57
2022/08/22 07:20:54;;;;;;;2.85;0.82;;;18.80;57.50;20.90;93831.00;;;;10516103;27;45755;-58
2022/08/22 07:26:27;;;;;;;1.30;0.70;;;18.90;57.40;20.90;93833.00;;;;10508841;28;45176;-59
2022/08/22 07:31:55;;;;;;;1.40;0.80;;;18.90;57.20;20.90;93836.00;;;;10506553;27;45141;-60
2022/08/22 07:37:28;;;;;;;3.03;0.70;;;18.90;57.10;20.90;93825.00;;;;10511406;28;45356;-60
2022/08/22 07:42:56;;;;;;;1.50;0.77;;;18.90;57.10;21.00;93821.00;;;;10509837;28;45208;-60
2022/08/22 07:48:24;;;;;;;1.38;0.70;;;18.90;57.00;21.00;93821.00;;;;10510673;28;45196;-59
2022/08/22 07:53:50;;;;;;;2.03;0.98;;;18.90;57.00;20.90;93815.00;;;;10515221;27;45126;-59
2022/08/22 07:59:16;;;;;;;2.30;0.80;;;18.90;57.50;20.90;93829.00;;;;10517838;27;45247;-59
2022/08/22 08:04:40;;;;;;;1.70;1.00;;;18.80;57.70;20.90;93834.00;;;;10517137;28;45198;-58
2022/08/22 08:10:07;;;;;;;1.98;0.80;;;18.80;57.60;20.90;93826.00;;;;10517837;27;45504;-59
2022/08/22 08:15:30;;;;;;;1.65;0.85;;;18.80;57.40;21.00;93823.00;;;;10516205;28;45187;-60
2022/08/22 08:20:55;;;;;;;3.92;0.98;;;18.90;57.50;20.90;93824.00;;;;10515503;28;45226;-59
2022/08/22 08:26:20;;;;;;;2.63;0.80;;;18.80;57.50;20.90;93823.00;;;;10512559;28;45820;-59
2022/08/22 08:31:44;;;;;;;1.35;0.90;;;18.80;57.70;20.90;93834.00;;;;10517579;27;45275;-58
2022/08/22 08:37:12;;;;;;;1.52;0.90;;;18.80;57.80;20.90;93838.00;;;;10516284;28;45666;-60
2022/08/22 08:49:14;;;;;;;1.73;0.90;;;18.80;57.80;20.90;93841.00;;;;10516325;27;45732;-57
2022/08/22 08:54:54;;;;;;;1.95;1.00;;;18.80;57.70;20.90;93822.00;;;;10515785;28;45332;-58
2022/08/22 09:00:22;;;;;;;1.17;0.65;;;18.90;58.00;20.90;93819.00;;;;10515467;27;45159;-59
2022/08/22 09:06:18;;;;;;;1.20;0.77;;;18.80;58.00;21.00;93827.00;;;;10514572;27;45223;-60
2022/08/22 09:12:16;;;;;;;1.80;0.80;;;18.90;58.00;21.00;93828.00;;;;10515218;27;45199;-58
2022/08/22 09:18:12;;;;;;;3.67;1.10;;;18.90;57.80;21.00;93810.00;;;;10514415;27;45143;-59
2022/08/22 09:24:36;;;;;;;1.83;0.90;;;18.90;57.60;21.00;93822.00;;;;10514416;28;45292;-60
2022/08/22 09:30:07;;;;;;;1.90;0.90;;;19.00;57.50;21.00;93817.00;;;;10513396;27;45343;-59
2022/08/22 09:35:40;;;;;;;1.65;1.02;;;19.00;57.30;21.10;93816.00;;;;10514295;28;45259;-60
2022/08/22 09:41:25;;;;;;;3.38;1.10;;;19.00;57.00;21.00;93818.00;;;;10512863;27;45207;-60
2022/08/22 09:46:58;;;;;;;1.90;0.80;;;19.00;57.20;21.10;93831.00;;;;10511469;28;45922;-59
2022/08/22 09:52:40;;;;;;;4.32;1.10;;;19.00;57.30;21.10;93836.00;;;;10511278;28;46262;-59
2022/08/22 09:58:10;;;;;;;1.88;1.00;;;18.90;57.00;21.10;93823.00;;;;10508036;28;45331;-59
2022/08/22 10:04:28;;;;;;;2.75;1.10;;;19.00;57.00;21.10;93831.00;;;;10509168;28;45172;-60
2022/08/22 10:10:02;;;;;;;2.80;0.80;;;19.00;56.90;21.10;93836.00;;;;10506469;27;45606;-59
2022/08/22 10:15:37;;;;;;;1.85;0.90;;;19.00;56.80;21.10;93832.00;;;;10511441;28;45897;-58
2022/08/22 10:21:11;;;;;;;2.65;1.13;;;19.00;56.40;21.10;93837.00;;;;10512455;27;45164;-59
2022/08/22 10:26:42;;;;;;;1.55;0.98;;;19.00;56.40;21.10;93837.00;;;;10511228;28;45671;-59
2022/08/22 10:32:16;;;;;;;2.00;1.20;;;19.00;56.30;21.10;93835.00;;;;10513198;28;45509;-59
2022/08/22 10:37:44;;;;;;;3.38;1.30;;;19.00;56.20;21.10;93839.00;;;;10512013;28;45257;-59
2022/08/22 10:43:11;;;;;;;2.50;1.40;;;19.00;55.80;21.10;93837.00;;;;10512309;28;45263;-60
2022/08/22 10:48:48;;;;;;;2.58;1.15;;;19.00;55.70;21.10;93832.00;;;;10512287;27;46502;-59
2022/08/22 10:54:28;;;;;;;2.83;1.20;;;19.10;55.50;21.10;93827.00;;;;10508662;27;45198;-57
2022/08/22 10:59:57;;;;;;;1.90;0.80;;;19.00;55.50;21.10;93822.00;;;;10509555;28;45137;-59
2022/08/22 11:05:33;;;;;;;2.40;1.20;;;19.10;55.20;21.10;93824.00;;;;10516071;28;45304;-60
2022/08/22 11:11:18;;;;;;;1.92;1.02;;;19.00;55.20;21.20;93822.00;;;;10518140;28;45840;-57
2022/08/22 11:16:57;;;;;;;1.98;1.17;;;19.10;55.00;21.20;93822.00;;;;10512488;27;45185;-59
2022/08/22 11:22:31;;;;;;;1.90;0.88;;;19.10;55.00;21.20;93821.00;;;;10515118;28;45223;-58
2022/08/22 11:28:15;;;;;;;1.38;0.90;;;19.10;54.70;21.20;93816.00;;;;10520495;27;45220;-59
2022/08/22 11:33:44;;;;;;;1.70;1.05;;;19.10;54.70;21.20;93803.00;;;;10525469;28;45116;-59
2022/08/22 11:39:24;;;;;;;1.13;0.95;;;19.10;54.90;21.20;93793.00;;;;10523983;27;45187;-57
2022/08/22 11:44:53;;;;;;;2.47;1.02;;;19.20;54.60;21.20;93775.00;;;;10525970;28;45867;-57
2022/08/22 11:50:23;;;;;;;1.35;1.10;;;19.20;54.60;21.30;93786.00;;;;10520834;27;45198;-60
2022/08/22 11:55:58;;;;;;;1.90;1.13;;;19.20;54.60;21.30;93781.00;;;;10519881;28;45166;-60
2022/08/22 12:01:28;;;;;;;2.15;1.00;;;19.20;54.90;21.20;93787.00;;;;10518096;27;45159;-59
2022/08/22 12:06:59;;;;;;;3.10;0.90;;;19.20;55.30;21.20;93787.00;;;;10527520;27;45214;-58
2022/08/22 12:12:30;;;;;;;1.40;0.90;;;19.20;55.40;21.20;93775.00;;;;10518883;28;45468;-59
2022/08/22 12:18:23;;;;;;;4.25;1.20;;;19.20;55.80;21.20;93780.00;;;;10516817;28;45761;-58
2022/08/22 12:24:25;;;;;;;2.53;0.93;;;19.20;55.70;21.20;93791.00;;;;10510639;28;45858;-59
2022/08/22 12:30:06;;;;;;;2.72;1.05;;;19.10;55.80;21.30;93773.00;;;;10517538;28;45168;-59
2022/08/22 12:35:42;;;;;;;1.92;0.98;;;19.20;56.10;21.20;93766.00;;;;10517633;28;45151;-59
2022/08/22 12:41:26;;;;;;;3.40;0.93;;;19.10;56.10;21.30;93761.00;;;;10516237;27;45180;-59
2022/08/22 12:47:06;;;;;;;2.85;1.20;;;19.20;56.10;21.30;93773.00;;;;10517461;28;45200;-59
2022/08/22 12:52:48;;;;;;;1.50;1.10;;;19.20;56.20;21.30;93750.00;;;;10517305;27;45172;-60
2022/08/22 12:58:24;;;;;;;1.35;0.93;;;19.20;56.20;21.30;93751.00;;;;10516460;27;45373;-59
2022/08/22 13:03:50;;;;;;;2.10;1.00;;;19.20;56.30;21.30;93724.00;;;;10516734;28;45194;-59
2022/08/22 13:09:17;;;;;;;1.88;0.90;;;19.20;56.20;21.40;93743.00;;;;10517491;27;45227;-58
2022/08/22 13:14:37;;;;;;;;;;;19.30;56.40;21.40;93752.00;;;;10515890;28;45209;-59
2022/08/22 13:20:09;;;;;;;4.63;1.10;;;19.20;56.30;21.40;93736.00;;;;10516434;28;45229;-58
2022/08/22 13:26:03;;;;;;;3.05;1.00;;;19.30;56.10;21.50;93746.00;;;;10513732;28;45218;-58
2022/08/22 13:31:28;;;;;;;2.45;1.05;;;19.40;55.70;21.50;93734.00;;;;10516394;28;45203;-59
2022/08/22 13:36:54;;;;;;;3.22;0.98;;;19.40;55.10;21.50;93736.00;;;;10516298;28;45136;-60
2022/08/22 13:42:21;;;;;;;1.90;0.80;;;19.50;55.20;21.60;93736.00;;;;10515314;28;45334;-58
2022/08/22 13:47:52;;;;;;;2.40;1.10;;;19.50;55.00;21.60;93744.00;;;;10515786;27;45179;-59
2022/08/22 13:53:27;;;;;;;2.20;1.08;;;19.50;55.00;21.60;93742.00;;;;10515774;28;45221;-59
2022/08/22 13:58:53;;;;;;;1.80;0.70;;;19.50;54.40;21.60;93731.00;;;;10515564;27;45910;-58
2022/08/22 14:04:24;;;;;;;2.42;1.05;;;19.50;54.70;21.60;93710.00;;;;10515597;28;45169;-59
2022/08/22 14:09:55;;;;;;;2.45;1.08;;;19.50;54.40;21.70;93718.00;;;;10515357;28;45895;-60
2022/08/22 14:15:23;;;;;;;1.98;1.02;;;19.60;53.90;21.70;93711.00;;;;10514700;28;45220;-59
2022/08/22 14:20:44;;;;;;;2.50;1.00;;;19.60;54.30;21.60;93712.00;;;;10513825;27;45323;-59
2022/08/22 14:26:06;;;;;;;2.65;1.10;;;19.50;54.30;21.60;93720.00;;;;10509023;28;45686;-59
2022/08/22 14:31:29;;;;;;;4.85;1.17;;;19.50;54.30;21.60;93719.00;;;;10514636;28;45135;-60
2022/08/22 14:37:00;;;;;;;4.80;1.20;;;19.50;55.00;21.60;93727.00;;;;10513385;28;45771;-59
2022/08/22 14:42:26;;;;;;;3.42;1.27;;;19.50;54.40;21.60;93708.00;;;;10513645;27;45220;-59
2022/08/22 14:47:54;;;;;;;5.00;1.10;;;19.50;54.60;21.60;93722.00;;;;10513555;28;45779;-58
2022/08/22 14:53:25;;;;;;;1.30;0.90;;;19.50;54.70;21.60;93721.00;;;;10513083;28;45314;-58
2022/08/22 14:58:51;;;;;;;1.83;0.85;;;19.50;54.70;21.60;93697.00;;;;10513353;27;45261;-59
2022/08/22 15:04:13;;;;;;;4.28;1.23;;;19.50;54.50;21.70;93708.00;;;;10512279;27;45308;-59
2022/08/22 15:09:39;;;;;;;3.08;1.10;;;19.60;54.20;21.60;93696.00;;;;10512890;28;45340;-59
2022/08/22 15:15:05;;;;;;;3.90;0.93;;;19.60;54.30;21.70;93695.00;;;;10512708;28;45753;-58
2022/08/22 15:20:30;;;;;;;;;;;19.60;54.10;21.70;93705.00;;;;10501020;27;45889;-59
2022/08/22 15:26:00;;;;;;;1.90;1.00;;;19.60;54.20;21.70;93689.00;;;;10512554;28;45129;-59
2022/08/22 15:31:23;;;;;;;3.47;1.10;;;19.60;54.40;21.70;93688.00;;;;10511200;27;45162;-58
2022/08/22 15:37:30;;;;;;;3.83;1.05;;;19.60;54.40;21.70;93702.00;;;;10511827;28;45872;-59
2022/08/22 15:42:51;;;;;;;2.80;1.00;;;19.60;54.50;21.70;93686.00;;;;10446572;27;45311;-59
2022/08/22 15:48:29;;;;;;;1.80;0.90;;;19.60;54.80;21.60;93691.00;;;;10507709;28;45224;-61
2022/08/22 15:54:04;;;;;;;3.25;1.05;;;19.50;55.00;21.60;93693.00;;;;10509724;28;45358;-60
2022/08/22 15:59:38;;;;;;;2.80;1.02;;;19.50;55.10;21.60;93703.00;;;;10497920;28;45221;-60
2022/08/22 16:05:25;;;;;;;1.73;0.80;;;19.50;54.90;21.60;93695.00;;;;10509291;28;45297;-59
2022/08/22 16:10:53;;;;;;;2.45;1.10;;;19.50;55.00;21.60;93701.00;;;;10509635;28;45797;-60
2022/08/22 16:16:55;;;;;;;1.55;1.10;;;19.50;54.90;21.60;93703.00;;;;10516296;28;45253;-59
2022/08/22 16:22:16;;;;;;;1.55;1.00;;;19.50;54.60;21.60;93686.00;;;;10516127;27;45225;-57
2022/08/22 16:27:52;;;;;;;3.97;1.10;;;19.50;54.60;21.70;93699.00;;;;10516398;27;45907;-58
2022/08/22 16:33:29;;;;;;;1.67;1.13;;;19.60;54.30;21.60;93693.00;;;;10518962;28;45171;-59
2022/08/22 16:38:55;;;;;;;1.45;0.95;;;19.60;54.40;21.60;93689.00;;;;10516005;27;45260;-59
2022/08/22 16:44:40;;;;;;;1.67;0.93;;;19.50;54.20;21.60;93694.00;;;;10516674;28;45776;-59
2022/08/22 16:50:25;;;;;;;1.58;0.85;;;19.50;54.10;21.60;93695.00;;;;10511691;27;45328;-58
2022/08/22 16:56:09;;;;;;;1.83;1.02;;;19.50;54.20;21.60;93698.00;;;;10515009;27;45290;-58
2022/08/22 17:01:55;;;;;;;2.17;1.05;;;19.50;54.20;21.60;93687.00;;;;10511304;27;45778;-57
2022/08/22 17:07:31;;;;;;;3.70;1.33;;;19.50;54.20;21.60;93701.00;;;;10513949;28;45309;-59
2022/08/22 17:13:09;;;;;;;1.73;1.20;;;19.50;54.40;21.60;93698.00;;;;10515189;28;45147;-58
2022/08/22 17:18:56;;;;;;;2.22;1.13;;;19.50;54.40;21.60;93703.00;;;;10514796;27;45312;-57
2022/08/22 17:24:27;;;;;;;2.43;1.10;;;19.50;54.60;21.60;93698.00;;;;10510717;27;45137;-59
2022/08/22 17:30:02;;;;;;;2.22;1.00;;;19.40;54.50;21.50;93699.00;;;;10514436;28;45879;-58
2022/08/22 17:35:43;;;;;;;5.32;1.23;;;19.40;54.50;21.50;93718.00;;;;10514804;28;45215;-57
2022/08/22 17:41:21;;;;;;;3.55;1.13;;;19.40;55.40;21.40;93710.00;;;;10513639;27;45905;-59
2022/08/22 17:46:52;;;;;;;2.88;1.15;;;19.40;55.10;21.40;93716.00;;;;10511416;28;45762;-59
2022/08/22 17:52:20;;;;;;;2.30;1.20;;;19.40;54.50;21.40;93727.00;;;;10513546;28;45550;-60
2022/08/22 17:57:50;;;;;;;2.10;1.08;;;19.40;54.20;21.40;93731.00;;;;10512655;27;45182;-58
2022/08/22 18:03:19;;;;;;;3.88;1.10;;;19.40;54.00;21.40;93730.00;;;;10512631;28;45461;-57
2022/08/22 18:08:44;;;;;;;2.72;1.50;;;19.30;54.00;21.40;93750.00;;;;10512883;28;45901;-59
2022/08/22 18:14:13;;;;;;;2.85;1.20;;;19.30;54.00;21.40;93743.00;;;;10512777;28;45191;-57
2022/08/22 18:19:43;;;;;;;1.55;1.00;;;19.40;53.80;21.40;93750.00;;;;10510636;28;45790;-60
2022/08/22 18:25:25;;;;;;;2.00;1.05;;;19.40;53.60;21.40;93758.00;;;;10511708;28;45256;-60
2022/08/22 18:30:58;;;;;;;2.42;1.00;;;19.30;53.50;21.30;93753.00;;;;10513568;28;45229;-59
2022/08/22 18:36:25;;;;;;;1.80;1.00;;;19.30;53.40;21.30;93747.00;;;;10511874;28;45224;-60
2022/08/22 18:41:50;;;;;;;;;;;19.20;53.50;21.30;93750.00;;;;10502777;28;45274;-59
2022/08/22 18:47:16;;;;;;;1.50;0.98;;;19.20;53.40;21.30;93766.00;;;;10511825;28;45243;-58
2022/08/22 18:52:39;;;;;;;2.05;1.10;;;19.20;53.40;21.30;93767.00;;;;10512389;28;45897;-59
2022/08/22 18:58:48;;;;;;;2.08;1.17;;;19.20;53.20;21.30;93774.00;;;;10510995;28;45894;-59
2022/08/22 19:04:57;;;;;;;1.73;1.02;;;19.20;53.30;21.30;93769.00;;;;10481450;27;45782;-57
2022/08/22 19:10:52;;;;;;;2.08;1.00;;;19.20;53.40;21.30;93784.00;;;;10511095;27;45759;-59
2022/08/22 19:16:42;;;;;;;1.75;1.00;;;19.20;53.40;21.20;93763.00;;;;10511198;28;45817;-57
2022/08/22 19:27:39;;;;;;;2.13;1.27;;;19.10;53.70;21.20;93754.00;;;;10545509;27;45262;-58
2022/08/22 19:33:06;;;;;;;2.35;1.40;;;19.10;53.70;21.20;93766.00;;;;10504890;28;45121;-58
2022/08/22 19:38:53;;;;;;;1.77;0.90;;;19.10;54.00;21.20;93783.00;;;;10504701;28;45259;-59
2022/08/22 19:44:36;;;;;;;2.40;0.93;;;19.10;54.40;21.20;93794.00;;;;10503727;28;45880;-58
2022/08/22 19:50:03;;;;;;;2.22;1.10;;;19.10;54.70;21.20;93791.00;;;;10503930;28;45217;-58
2022/08/22 19:55:33;;;;;;;1.58;1.10;;;19.10;54.90;21.20;93788.00;;;;10504625;28;45197;-57
2022/08/22 20:00:59;;;;;;;2.13;1.20;;;19.10;55.00;21.10;93767.00;;;;10487134;28;45390;-57
2022/08/22 20:06:32;;;;;;;2.22;1.10;;;19.00;55.10;21.20;93794.00;;;;10464813;28;45214;-57
2022/08/22 20:12:02;;;;;;;1.85;1.00;;;19.10;55.20;21.10;93790.00;;;;10462416;28;45312;-57
2022/08/22 20:17:42;;;;;;;1.75;1.10;;;19.10;55.50;21.10;93788.00;;;;10487640;28;45388;-58
2022/08/22 20:23:12;;;;;;;1.65;1.10;;;19.10;55.50;21.10;93793.00;;;;10488088;28;45318;-56
2022/08/22 20:28:44;;;;;;;2.30;1.40;;;19.00;55.40;21.10;93804.00;;;;10476629;28;45669;-58
2022/08/22 20:34:13;;;;;;;2.28;0.98;;;19.00;55.50;21.10;93812.00;;;;10473532;28;45952;-58
2022/08/22 20:39:39;;;;;;;2.40;0.95;;;19.00;55.60;21.10;93797.00;;;;10443325;28;45948;-57
2022/08/22 20:45:00;;;;;;;1.77;0.95;;;19.00;55.50;21.10;93800.00;;;;10464370;28;45207;-59
2022/08/22 20:50:25;;;;;;;1.90;1.00;;;19.00;54.90;21.10;93803.00;;;;10474493;28;45152;-58
2022/08/22 20:55:52;;;;;;;1.40;1.02;;;19.00;54.50;21.10;93810.00;;;;10474244;28;45265;-59
2022/08/22 21:01:15;;;;;;;1.67;1.10;;;19.00;54.40;21.10;93804.00;;;;10440899;28;45719;-59
2022/08/22 21:06:38;;;;;;;2.58;1.05;;;19.00;54.40;21.10;93811.00;;;;10432073;28;45278;-59
2022/08/22 21:12:00;;;;;;;1.70;0.90;;;19.00;54.40;21.10;93800.00;;;;10432152;28;45223;-57
2022/08/22 21:17:27;;;;;;;2.10;1.00;;;19.00;54.30;21.10;93815.00;;;;10462271;28;45534;-59
2022/08/22 21:22:50;;;;;;;2.83;1.17;;;19.00;54.20;21.10;93810.00;;;;10459751;28;45261;-57
2022/08/22 21:28:11;;;;;;;2.40;1.10;;;19.00;54.10;21.10;93809.00;;;;10443300;28;45603;-56
2022/08/22 21:33:32;;;;;;;2.08;1.25;;;19.00;54.20;21.00;93804.00;;;;10431571;28;45426;-60
2022/08/22 21:39:00;;;;;;;2.35;1.23;;;18.90;54.40;21.00;93817.00;;;;10430320;28;45206;-58
2022/08/22 21:44:29;;;;;;;2.42;1.10;;;18.90;54.30;21.00;93816.00;;;;10430668;28;45209;-58
2022/08/22 21:50:04;;;;;;;2.97;1.10;;;18.90;54.10;21.00;93818.00;;;;10460482;28;45682;-59
2022/08/22 21:55:29;;;;;;;0.98;0.88;;;18.90;54.00;21.00;93817.00;;;;10461594;28;45211;-59
2022/08/22 22:00:53;;;;;;;2.05;1.23;;;18.90;53.80;21.00;93816.00;;;;10442569;28;45184;-59
2022/08/22 22:06:14;;;;;;;2.53;1.00;;;18.90;54.50;21.00;93821.00;;;;10429868;28;45213;-58
2022/08/22 22:11:36;;;;;;;1.50;1.08;;;18.90;53.90;20.90;93822.00;;;;10429698;28;45866;-57
2022/08/22 22:16:57;;;;;;;1.42;0.88;;;18.90;54.20;20.90;93829.00;;;;10446002;28;45269;-57
2022/08/22 22:22:20;;;;;;;2.03;1.20;;;18.80;54.50;20.90;93821.00;;;;10466672;28;45268;-59
2022/08/22 22:27:42;;;;;;;1.92;1.30;;;18.80;54.50;20.90;93838.00;;;;10442837;28;45204;-59
2022/08/22 22:33:02;;;;;;;1.80;1.08;;;18.80;54.60;20.90;93832.00;;;;10429088;28;45225;-59
2022/08/22 22:38:23;;;;;;;1.52;1.10;;;18.80;54.60;20.90;93845.00;;;;10429115;28;45386;-56
2022/08/22 22:43:45;;;;;;;1.85;1.23;;;18.80;54.50;20.90;93847.00;;;;10429078;28;45489;-58
2022/08/22 22:49:06;;;;;;;1.63;1.17;;;18.80;54.50;20.90;93835.00;;;;10428835;28;45213;-59
2022/08/22 22:54:27;;;;;;;2.28;1.20;;;18.70;54.50;20.90;93845.00;;;;10457859;28;45773;-60
2022/08/22 22:59:49;;;;;;;2.70;1.30;;;18.70;54.70;20.80;93842.00;;;;10463578;28;45363;-59
2022/08/22 23:05:11;;;;;;;2.08;1.13;;;18.70;54.70;20.80;93842.00;;;;10427373;28;45203;-58
2022/08/22 23:10:33;;;;;;;2.03;1.42;;;18.70;54.80;20.80;93849.00;;;;10427875;28;45778;-58
2022/08/22 23:15:55;;;;;;;1.38;1.10;;;18.70;54.80;20.80;93836.00;;;;10435327;28;45584;-59
2022/08/22 23:21:21;;;;;;;1.75;1.10;;;18.70;54.80;20.80;93838.00;;;;10469819;28;45249;-58
2022/08/22 23:26:43;;;;;;;2.42;1.40;;;18.70;54.80;20.80;93844.00;;;;10453783;28;45157;-59
2022/08/22 23:32:06;;;;;;;2.38;1.13;;;18.70;54.80;20.70;93846.00;;;;10427295;28;45246;-59
2022/08/22 23:37:26;;;;;;;6.10;1.45;;;18.70;54.70;20.70;93865.00;;;;10427233;28;45493;-58
2022/08/22 23:42:47;;;;;;;1.73;1.10;;;18.60;54.60;20.70;93868.00;;;;10427387;28;45203;-60
2022/08/22 23:48:08;;;;;;;2.97;1.65;;;18.60;54.70;20.70;93864.00;;;;10458692;28;45579;-58
2022/08/22 23:53:29;;;;;;;2.40;1.30;;;18.60;54.70;20.70;93860.00;;;;10468816;28;45481;-59
2022/08/22 23:58:51;;;;;;;2.08;1.27;;;18.60;54.70;20.70;93860.00;;;;10468229;28;45140;-59
